sensor_id;sensor_type;location;lat;lon;timestamp;temperature;humidity
60287;DHT22;46141;52.382;5.270;2023-04-24T00:02:15;20.00;69.50
60287;DHT22;46141;52.382;5.270;2023-04-24T00:04:42;19.90;69.50
60287;DHT22;46141;52.382;5.270;2023-04-24T00:07:10;19.90;69.60
60287;DHT22;46141;52.382;5.270;2023-04-24T00:09:36;19.90;69.50
60287;DHT22;46141;52.382;5.270;2023-04-24T00:12:02;19.90;69.60
60287;DHT22;46141;52.382;5.270;2023-04-24T00:14:31;19.90;69.50
60287;DHT22;46141;52.382;5.270;2023-04-24T00:16:57;19.90;69.40
60287;DHT22;46141;52.382;5.270;2023-04-24T00:19:22;19.90;69.60
60287;DHT22;46141;52.382;5.270;2023-04-24T00:21:48;19.90;69.70
60287;DHT22;46141;52.382;5.270;2023-04-24T00:24:17;19.90;70.30
60287;DHT22;46141;52.382;5.270;2023-04-24T00:26:43;19.90;69.70
60287;DHT22;46141;52.382;5.270;2023-04-24T00:29:09;19.90;69.70
60287;DHT22;46141;52.382;5.270;2023-04-24T00:31:35;19.80;69.70
60287;DHT22;46141;52.382;5.270;2023-04-24T00:34:01;19.80;69.60
60287;DHT22;46141;52.382;5.270;2023-04-24T00:36:28;19.80;69.70
60287;DHT22;46141;52.382;5.270;2023-04-24T00:38:54;19.80;69.60
60287;DHT22;46141;52.382;5.270;2023-04-24T00:41:21;19.80;69.60
60287;DHT22;46141;52.382;5.270;2023-04-24T00:43:47;19.80;69.60
60287;DHT22;46141;52.382;5.270;2023-04-24T00:46:14;19.80;69.50
60287;DHT22;46141;52.382;5.270;2023-04-24T00:48:40;19.80;69.50
60287;DHT22;46141;52.382;5.270;2023-04-24T00:51:05;19.80;69.50
60287;DHT22;46141;52.382;5.270;2023-04-24T00:53:31;19.80;69.40
60287;DHT22;46141;52.382;5.270;2023-04-24T00:55:58;19.80;69.40
60287;DHT22;46141;52.382;5.270;2023-04-24T00:58:24;19.80;69.40
60287;DHT22;46141;52.382;5.270;2023-04-24T01:00:51;19.80;69.30
60287;DHT22;46141;52.382;5.270;2023-04-24T01:03:20;19.80;69.30
60287;DHT22;46141;52.382;5.270;2023-04-24T01:05:48;19.80;69.30
60287;DHT22;46141;52.382;5.270;2023-04-24T01:08:15;19.70;69.20
60287;DHT22;46141;52.382;5.270;2023-04-24T01:10:41;19.70;69.10
60287;DHT22;46141;52.382;5.270;2023-04-24T01:13:10;19.70;69.00
60287;DHT22;46141;52.382;5.270;2023-04-24T01:15:36;19.70;68.90
60287;DHT22;46141;52.382;5.270;2023-04-24T01:18:02;19.70;68.90
60287;DHT22;46141;52.382;5.270;2023-04-24T01:20:28;19.70;69.00
60287;DHT22;46141;52.382;5.270;2023-04-24T01:22:55;19.70;68.90
60287;DHT22;46141;52.382;5.270;2023-04-24T01:25:23;19.70;68.90
60287;DHT22;46141;52.382;5.270;2023-04-24T01:27:48;19.70;68.90
60287;DHT22;46141;52.382;5.270;2023-04-24T01:30:15;19.70;68.80
60287;DHT22;46141;52.382;5.270;2023-04-24T01:32:41;19.70;68.90
60287;DHT22;46141;52.382;5.270;2023-04-24T01:35:10;19.70;68.80
60287;DHT22;46141;52.382;5.270;2023-04-24T01:37:36;19.60;68.80
60287;DHT22;46141;52.382;5.270;2023-04-24T01:40:06;19.60;68.80
60287;DHT22;46141;52.382;5.270;2023-04-24T01:42:33;19.60;68.80
60287;DHT22;46141;52.382;5.270;2023-04-24T01:45:00;19.60;68.70
60287;DHT22;46141;52.382;5.270;2023-04-24T01:47:27;19.60;68.70
60287;DHT22;46141;52.382;5.270;2023-04-24T01:49:53;19.60;68.70
60287;DHT22;46141;52.382;5.270;2023-04-24T01:52:19;19.60;68.70
60287;DHT22;46141;52.382;5.270;2023-04-24T01:54:45;19.50;68.60
60287;DHT22;46141;52.382;5.270;2023-04-24T01:57:11;19.50;68.60
60287;DHT22;46141;52.382;5.270;2023-04-24T01:59:36;19.50;68.60
60287;DHT22;46141;52.382;5.270;2023-04-24T02:02:03;19.50;68.60
60287;DHT22;46141;52.382;5.270;2023-04-24T02:04:29;19.50;68.60
60287;DHT22;46141;52.382;5.270;2023-04-24T02:06:54;19.50;68.60
60287;DHT22;46141;52.382;5.270;2023-04-24T02:09:20;19.50;68.60
60287;DHT22;46141;52.382;5.270;2023-04-24T02:11:46;19.50;68.50
60287;DHT22;46141;52.382;5.270;2023-04-24T02:14:12;19.40;68.60
60287;DHT22;46141;52.382;5.270;2023-04-24T02:16:37;19.50;68.60
60287;DHT22;46141;52.382;5.270;2023-04-24T02:19:03;19.50;68.60
60287;DHT22;46141;52.382;5.270;2023-04-24T02:21:29;19.40;68.60
60287;DHT22;46141;52.382;5.270;2023-04-24T02:23:56;19.40;68.60
60287;DHT22;46141;52.382;5.270;2023-04-24T02:26:22;19.40;68.50
60287;DHT22;46141;52.382;5.270;2023-04-24T02:28:48;19.40;68.60
60287;DHT22;46141;52.382;5.270;2023-04-24T02:31:14;19.40;68.60
60287;DHT22;46141;52.382;5.270;2023-04-24T02:33:40;19.40;68.50
60287;DHT22;46141;52.382;5.270;2023-04-24T02:36:06;19.40;68.40
60287;DHT22;46141;52.382;5.270;2023-04-24T02:38:32;19.40;68.40
60287;DHT22;46141;52.382;5.270;2023-04-24T02:40:58;19.40;68.40
60287;DHT22;46141;52.382;5.270;2023-04-24T02:43:23;19.40;68.40
60287;DHT22;46141;52.382;5.270;2023-04-24T02:45:49;19.40;68.50
60287;DHT22;46141;52.382;5.270;2023-04-24T02:48:15;19.30;68.40
60287;DHT22;46141;52.382;5.270;2023-04-24T02:50:40;19.30;68.40
60287;DHT22;46141;52.382;5.270;2023-04-24T02:53:06;19.30;68.30
60287;DHT22;46141;52.382;5.270;2023-04-24T02:55:32;19.30;68.30
60287;DHT22;46141;52.382;5.270;2023-04-24T02:57:58;19.30;68.40
60287;DHT22;46141;52.382;5.270;2023-04-24T03:00:24;19.30;68.30
60287;DHT22;46141;52.382;5.270;2023-04-24T03:02:49;19.30;68.40
60287;DHT22;46141;52.382;5.270;2023-04-24T03:05:16;19.30;68.40
60287;DHT22;46141;52.382;5.270;2023-04-24T03:07:41;19.30;68.40
60287;DHT22;46141;52.382;5.270;2023-04-24T03:10:07;19.30;68.30
60287;DHT22;46141;52.382;5.270;2023-04-24T03:12:33;19.20;68.20
60287;DHT22;46141;52.382;5.270;2023-04-24T03:14:59;19.20;68.80
60287;DHT22;46141;52.382;5.270;2023-04-24T03:17:25;19.20;68.20
60287;DHT22;46141;52.382;5.270;2023-04-24T03:19:50;19.20;68.20
60287;DHT22;46141;52.382;5.270;2023-04-24T03:22:16;19.20;68.30
60287;DHT22;46141;52.382;5.270;2023-04-24T03:24:41;19.20;68.30
60287;DHT22;46141;52.382;5.270;2023-04-24T03:27:07;19.20;68.20
60287;DHT22;46141;52.382;5.270;2023-04-24T03:29:33;19.20;68.20
60287;DHT22;46141;52.382;5.270;2023-04-24T03:31:58;19.20;68.20
60287;DHT22;46141;52.382;5.270;2023-04-24T03:34:24;19.10;68.20
60287;DHT22;46141;52.382;5.270;2023-04-24T03:36:50;19.10;68.20
60287;DHT22;46141;52.382;5.270;2023-04-24T03:39:16;19.10;68.20
60287;DHT22;46141;52.382;5.270;2023-04-24T03:41:42;19.10;68.20
60287;DHT22;46141;52.382;5.270;2023-04-24T03:44:08;19.10;68.20
60287;DHT22;46141;52.382;5.270;2023-04-24T03:46:33;19.10;68.20
60287;DHT22;46141;52.382;5.270;2023-04-24T03:48:59;19.10;68.20
60287;DHT22;46141;52.382;5.270;2023-04-24T03:51:25;19.10;68.20
60287;DHT22;46141;52.382;5.270;2023-04-24T03:53:50;19.10;68.20
60287;DHT22;46141;52.382;5.270;2023-04-24T03:56:16;19.10;68.30
60287;DHT22;46141;52.382;5.270;2023-04-24T03:58:42;19.10;68.30
60287;DHT22;46141;52.382;5.270;2023-04-24T04:01:08;19.00;68.20
60287;DHT22;46141;52.382;5.270;2023-04-24T04:03:33;19.00;68.10
60287;DHT22;46141;52.382;5.270;2023-04-24T04:05:59;19.00;68.20
60287;DHT22;46141;52.382;5.270;2023-04-24T04:08:25;19.00;68.30
60287;DHT22;46141;52.382;5.270;2023-04-24T04:10:51;19.00;68.20
60287;DHT22;46141;52.382;5.270;2023-04-24T04:13:17;19.00;68.30
60287;DHT22;46141;52.382;5.270;2023-04-24T04:15:42;19.00;68.20
60287;DHT22;46141;52.382;5.270;2023-04-24T04:18:08;19.00;68.30
60287;DHT22;46141;52.382;5.270;2023-04-24T04:20:34;19.00;68.30
60287;DHT22;46141;52.382;5.270;2023-04-24T04:22:59;19.00;68.30
60287;DHT22;46141;52.382;5.270;2023-04-24T04:25:25;19.00;68.90
60287;DHT22;46141;52.382;5.270;2023-04-24T04:27:51;18.90;68.20
60287;DHT22;46141;52.382;5.270;2023-04-24T04:30:17;18.90;68.20
60287;DHT22;46141;52.382;5.270;2023-04-24T04:32:43;18.90;68.30
60287;DHT22;46141;52.382;5.270;2023-04-24T04:35:09;18.90;68.90
60287;DHT22;46141;52.382;5.270;2023-04-24T04:37:35;18.90;68.40
60287;DHT22;46141;52.382;5.270;2023-04-24T04:40:03;18.90;68.30
60287;DHT22;46141;52.382;5.270;2023-04-24T04:42:32;18.90;68.30
60287;DHT22;46141;52.382;5.270;2023-04-24T04:44:59;18.90;68.30
60287;DHT22;46141;52.382;5.270;2023-04-24T04:47:26;18.90;68.30
60287;DHT22;46141;52.382;5.270;2023-04-24T04:49:52;18.90;68.30
60287;DHT22;46141;52.382;5.270;2023-04-24T04:52:19;18.90;68.30
60287;DHT22;46141;52.382;5.270;2023-04-24T04:54:44;18.80;68.30
60287;DHT22;46141;52.382;5.270;2023-04-24T04:57:11;18.80;68.30
60287;DHT22;46141;52.382;5.270;2023-04-24T04:59:37;18.80;68.30
60287;DHT22;46141;52.382;5.270;2023-04-24T05:02:03;18.80;68.30
60287;DHT22;46141;52.382;5.270;2023-04-24T05:04:28;18.80;68.30
60287;DHT22;46141;52.382;5.270;2023-04-24T05:06:55;18.80;68.30
60287;DHT22;46141;52.382;5.270;2023-04-24T05:09:21;18.80;68.30
60287;DHT22;46141;52.382;5.270;2023-04-24T05:11:47;18.80;68.30
60287;DHT22;46141;52.382;5.270;2023-04-24T05:14:12;18.80;68.30
60287;DHT22;46141;52.382;5.270;2023-04-24T05:16:38;18.80;68.40
60287;DHT22;46141;52.382;5.270;2023-04-24T05:19:04;18.80;68.30
60287;DHT22;46141;52.382;5.270;2023-04-24T05:21:30;18.80;68.40
60287;DHT22;46141;52.382;5.270;2023-04-24T05:23:56;18.70;68.30
60287;DHT22;46141;52.382;5.270;2023-04-24T05:26:22;18.70;68.30
60287;DHT22;46141;52.382;5.270;2023-04-24T05:28:48;18.80;68.30
60287;DHT22;46141;52.382;5.270;2023-04-24T05:31:14;18.70;68.30
60287;DHT22;46141;52.382;5.270;2023-04-24T05:33:39;18.70;68.00
60287;DHT22;46141;52.382;5.270;2023-04-24T05:36:06;18.70;68.30
60287;DHT22;46141;52.382;5.270;2023-04-24T05:38:32;18.70;68.40
60287;DHT22;46141;52.382;5.270;2023-04-24T05:40:57;18.70;68.50
60287;DHT22;46141;52.382;5.270;2023-04-24T05:43:23;18.70;68.40
60287;DHT22;46141;52.382;5.270;2023-04-24T05:45:49;18.70;68.40
60287;DHT22;46141;52.382;5.270;2023-04-24T05:48:14;18.70;68.60
60287;DHT22;46141;52.382;5.270;2023-04-24T05:50:41;18.70;68.20
60287;DHT22;46141;52.382;5.270;2023-04-24T05:53:06;18.70;68.10
60287;DHT22;46141;52.382;5.270;2023-04-24T05:55:33;18.70;68.10
60287;DHT22;46141;52.382;5.270;2023-04-24T05:57:58;18.70;68.30
60287;DHT22;46141;52.382;5.270;2023-04-24T06:00:25;18.70;68.40
60287;DHT22;46141;52.382;5.270;2023-04-24T06:02:51;18.70;68.30
60287;DHT22;46141;52.382;5.270;2023-04-24T06:05:18;18.60;68.00
60287;DHT22;46141;52.382;5.270;2023-04-24T06:07:45;18.60;67.80
60287;DHT22;46141;52.382;5.270;2023-04-24T06:10:11;18.70;67.60
60287;DHT22;46141;52.382;5.270;2023-04-24T06:12:36;18.60;68.10
60287;DHT22;46141;52.382;5.270;2023-04-24T06:15:03;18.60;68.30
60287;DHT22;46141;52.382;5.270;2023-04-24T06:17:29;18.60;68.30
60287;DHT22;46141;52.382;5.270;2023-04-24T06:19:54;18.60;69.10
60287;DHT22;46141;52.382;5.270;2023-04-24T06:22:20;18.60;68.40
60287;DHT22;46141;52.382;5.270;2023-04-24T06:24:46;18.60;68.30
60287;DHT22;46141;52.382;5.270;2023-04-24T06:27:13;18.60;68.40
60287;DHT22;46141;52.382;5.270;2023-04-24T06:29:39;18.60;67.60
60287;DHT22;46141;52.382;5.270;2023-04-24T06:32:05;18.60;67.50
60287;DHT22;46141;52.382;5.270;2023-04-24T06:34:31;18.60;67.90
60287;DHT22;46141;52.382;5.270;2023-04-24T06:36:58;18.60;68.10
60287;DHT22;46141;52.382;5.270;2023-04-24T06:39:24;18.60;67.80
60287;DHT22;46141;52.382;5.270;2023-04-24T06:41:49;18.60;67.50
60287;DHT22;46141;52.382;5.270;2023-04-24T06:44:15;18.60;67.90
60287;DHT22;46141;52.382;5.270;2023-04-24T06:46:42;18.60;68.20
60287;DHT22;46141;52.382;5.270;2023-04-24T06:49:07;18.50;68.20
60287;DHT22;46141;52.382;5.270;2023-04-24T06:51:33;18.50;68.20
60287;DHT22;46141;52.382;5.270;2023-04-24T06:53:59;18.60;68.30
60287;DHT22;46141;52.382;5.270;2023-04-24T06:56:25;18.50;68.40
60287;DHT22;46141;52.382;5.270;2023-04-24T06:58:51;18.50;68.50
60287;DHT22;46141;52.382;5.270;2023-04-24T07:01:17;18.50;68.40
60287;DHT22;46141;52.382;5.270;2023-04-24T07:03:43;18.50;68.30
60287;DHT22;46141;52.382;5.270;2023-04-24T07:06:09;18.50;68.20
60287;DHT22;46141;52.382;5.270;2023-04-24T07:08:36;18.50;68.50
60287;DHT22;46141;52.382;5.270;2023-04-24T07:11:02;18.50;68.80
60287;DHT22;46141;52.382;5.270;2023-04-24T07:13:28;18.50;68.80
60287;DHT22;46141;52.382;5.270;2023-04-24T07:15:54;18.50;68.80
60287;DHT22;46141;52.382;5.270;2023-04-24T07:18:21;18.50;68.80
60287;DHT22;46141;52.382;5.270;2023-04-24T07:20:47;18.50;68.90
60287;DHT22;46141;52.382;5.270;2023-04-24T07:23:15;18.50;68.80
60287;DHT22;46141;52.382;5.270;2023-04-24T07:25:41;18.50;68.80
60287;DHT22;46141;52.382;5.270;2023-04-24T07:28:07;18.50;68.80
60287;DHT22;46141;52.382;5.270;2023-04-24T07:30:33;18.50;68.80
60287;DHT22;46141;52.382;5.270;2023-04-24T07:32:59;18.50;68.80
60287;DHT22;46141;52.382;5.270;2023-04-24T07:35:26;18.40;69.40
60287;DHT22;46141;52.382;5.270;2023-04-24T07:37:53;18.50;68.80
60287;DHT22;46141;52.382;5.270;2023-04-24T07:40:19;18.50;68.80
60287;DHT22;46141;52.382;5.270;2023-04-24T07:42:45;18.40;68.80
60287;DHT22;46141;52.382;5.270;2023-04-24T07:45:11;18.50;68.80
60287;DHT22;46141;52.382;5.270;2023-04-24T07:47:37;18.50;68.80
60287;DHT22;46141;52.382;5.270;2023-04-24T07:50:05;18.40;68.80
60287;DHT22;46141;52.382;5.270;2023-04-24T07:52:31;18.40;68.80
60287;DHT22;46141;52.382;5.270;2023-04-24T07:54:56;18.40;68.80
60287;DHT22;46141;52.382;5.270;2023-04-24T07:57:24;18.40;68.70
60287;DHT22;46141;52.382;5.270;2023-04-24T07:59:50;18.40;68.80
60287;DHT22;46141;52.382;5.270;2023-04-24T08:02:16;18.40;68.80
60287;DHT22;46141;52.382;5.270;2023-04-24T08:04:42;18.40;68.80
60287;DHT22;46141;52.382;5.270;2023-04-24T08:07:08;18.40;68.80
60287;DHT22;46141;52.382;5.270;2023-04-24T08:09:33;18.30;68.80
60287;DHT22;46141;52.382;5.270;2023-04-24T08:11:59;18.30;68.80
60287;DHT22;46141;52.382;5.270;2023-04-24T08:14:25;18.40;69.40
60287;DHT22;46141;52.382;5.270;2023-04-24T08:16:54;18.30;68.80
60287;DHT22;46141;52.382;5.270;2023-04-24T08:19:20;18.30;68.80
60287;DHT22;46141;52.382;5.270;2023-04-24T08:21:46;18.30;68.80
60287;DHT22;46141;52.382;5.270;2023-04-24T08:24:12;18.30;68.80
60287;DHT22;46141;52.382;5.270;2023-04-24T08:26:37;18.30;68.70
60287;DHT22;46141;52.382;5.270;2023-04-24T08:29:04;18.40;68.80
60287;DHT22;46141;52.382;5.270;2023-04-24T08:31:30;18.30;68.70
60287;DHT22;46141;52.382;5.270;2023-04-24T08:33:55;18.30;68.60
60287;DHT22;46141;52.382;5.270;2023-04-24T08:36:21;18.40;68.80
60287;DHT22;46141;52.382;5.270;2023-04-24T08:38:47;18.30;68.70
60287;DHT22;46141;52.382;5.270;2023-04-24T08:41:14;18.30;68.70
60287;DHT22;46141;52.382;5.270;2023-04-24T08:43:42;18.30;68.70
60287;DHT22;46141;52.382;5.270;2023-04-24T08:46:07;18.30;68.70
60287;DHT22;46141;52.382;5.270;2023-04-24T08:48:34;18.30;68.70
60287;DHT22;46141;52.382;5.270;2023-04-24T08:51:00;18.30;68.70
60287;DHT22;46141;52.382;5.270;2023-04-24T08:53:27;18.30;68.70
60287;DHT22;46141;52.382;5.270;2023-04-24T08:55:55;18.30;68.70
60287;DHT22;46141;52.382;5.270;2023-04-24T08:58:24;18.30;68.70
60287;DHT22;46141;52.382;5.270;2023-04-24T09:00:51;18.30;68.70
60287;DHT22;46141;52.382;5.270;2023-04-24T09:03:18;18.30;68.70
60287;DHT22;46141;52.382;5.270;2023-04-24T09:05:46;18.30;68.70
60287;DHT22;46141;52.382;5.270;2023-04-24T09:08:18;18.30;68.70
60287;DHT22;46141;52.382;5.270;2023-04-24T09:10:44;18.30;68.70
60287;DHT22;46141;52.382;5.270;2023-04-24T09:13:10;18.30;68.60
60287;DHT22;46141;52.382;5.270;2023-04-24T09:15:40;18.30;68.60
60287;DHT22;46141;52.382;5.270;2023-04-24T09:18:06;18.30;68.60
60287;DHT22;46141;52.382;5.270;2023-04-24T09:20:32;18.30;68.70
60287;DHT22;46141;52.382;5.270;2023-04-24T09:22:58;18.30;68.70
60287;DHT22;46141;52.382;5.270;2023-04-24T09:25:34;18.30;68.60
60287;DHT22;46141;52.382;5.270;2023-04-24T09:28:04;18.30;68.60
60287;DHT22;46141;52.382;5.270;2023-04-24T09:30:32;18.30;68.60
60287;DHT22;46141;52.382;5.270;2023-04-24T09:33:12;18.30;68.60
60287;DHT22;46141;52.382;5.270;2023-04-24T09:35:43;18.30;68.60
60287;DHT22;46141;52.382;5.270;2023-04-24T09:38:13;18.40;68.60
60287;DHT22;46141;52.382;5.270;2023-04-24T09:40:39;18.40;68.60
60287;DHT22;46141;52.382;5.270;2023-04-24T09:43:11;18.30;68.60
60287;DHT22;46141;52.382;5.270;2023-04-24T09:45:40;18.30;68.60
60287;DHT22;46141;52.382;5.270;2023-04-24T09:48:09;18.30;68.60
60287;DHT22;46141;52.382;5.270;2023-04-24T09:50:35;18.30;68.60
60287;DHT22;46141;52.382;5.270;2023-04-24T09:53:03;18.40;68.60
60287;DHT22;46141;52.382;5.270;2023-04-24T09:55:30;18.40;68.60
60287;DHT22;46141;52.382;5.270;2023-04-24T09:58:00;18.30;68.50
60287;DHT22;46141;52.382;5.270;2023-04-24T10:00:31;18.40;68.50
60287;DHT22;46141;52.382;5.270;2023-04-24T10:03:02;18.40;68.50
60287;DHT22;46141;52.382;5.270;2023-04-24T10:05:33;18.30;68.50
60287;DHT22;46141;52.382;5.270;2023-04-24T10:08:05;18.40;68.50
60287;DHT22;46141;52.382;5.270;2023-04-24T10:10:34;18.40;68.50
60287;DHT22;46141;52.382;5.270;2023-04-24T10:13:01;18.40;68.50
60287;DHT22;46141;52.382;5.270;2023-04-24T10:15:27;18.40;68.50
60287;DHT22;46141;52.382;5.270;2023-04-24T10:17:53;18.40;68.50
60287;DHT22;46141;52.382;5.270;2023-04-24T10:20:24;18.40;68.40
60287;DHT22;46141;52.382;5.270;2023-04-24T10:22:52;18.40;68.40
60287;DHT22;46141;52.382;5.270;2023-04-24T10:25:23;18.40;68.30
60287;DHT22;46141;52.382;5.270;2023-04-24T10:27:51;18.40;68.20
60287;DHT22;46141;52.382;5.270;2023-04-24T10:30:18;18.50;68.30
60287;DHT22;46141;52.382;5.270;2023-04-24T10:32:44;18.50;68.20
60287;DHT22;46141;52.382;5.270;2023-04-24T10:35:13;18.50;68.20
60287;DHT22;46141;52.382;5.270;2023-04-24T10:40:27;18.40;68.30
60287;DHT22;46141;52.382;5.270;2023-04-24T10:42:56;18.40;68.30
60287;DHT22;46141;52.382;5.270;2023-04-24T10:45:23;18.40;68.30
60287;DHT22;46141;52.382;5.270;2023-04-24T10:48:03;18.50;68.30
60287;DHT22;46141;52.382;5.270;2023-04-24T10:50:41;18.50;68.10
60287;DHT22;46141;52.382;5.270;2023-04-24T10:53:16;18.50;68.10
60287;DHT22;46141;52.382;5.270;2023-04-24T10:58:10;18.50;67.90
60287;DHT22;46141;52.382;5.270;2023-04-24T11:00:39;18.60;68.00
60287;DHT22;46141;52.382;5.270;2023-04-24T11:03:06;18.60;67.90
60287;DHT22;46141;52.382;5.270;2023-04-24T11:05:52;18.70;67.80
60287;DHT22;46141;52.382;5.270;2023-04-24T11:08:26;18.70;67.70
60287;DHT22;46141;52.382;5.270;2023-04-24T11:11:02;18.80;67.80
60287;DHT22;46141;52.382;5.270;2023-04-24T11:19:06;18.70;67.90
60287;DHT22;46141;52.382;5.270;2023-04-24T11:26:56;18.60;67.90
60287;DHT22;46141;52.382;5.270;2023-04-24T11:29:37;18.70;68.00
60287;DHT22;46141;52.382;5.270;2023-04-24T11:35:04;18.60;68.00
60287;DHT22;46141;52.382;5.270;2023-04-24T11:37:37;18.60;68.00
60287;DHT22;46141;52.382;5.270;2023-04-24T11:40:05;18.70;68.00
60287;DHT22;46141;52.382;5.270;2023-04-24T11:42:39;18.70;67.90
60287;DHT22;46141;52.382;5.270;2023-04-24T11:45:11;18.70;68.00
60287;DHT22;46141;52.382;5.270;2023-04-24T11:47:37;18.70;68.00
60287;DHT22;46141;52.382;5.270;2023-04-24T11:50:04;18.70;67.90
60287;DHT22;46141;52.382;5.270;2023-04-24T11:52:31;18.70;67.90
60287;DHT22;46141;52.382;5.270;2023-04-24T11:54:56;18.70;68.00
60287;DHT22;46141;52.382;5.270;2023-04-24T11:57:24;18.70;68.00
60287;DHT22;46141;52.382;5.270;2023-04-24T11:59:53;18.70;68.00
60287;DHT22;46141;52.382;5.270;2023-04-24T12:02:22;18.70;67.90
60287;DHT22;46141;52.382;5.270;2023-04-24T12:04:48;18.80;67.90
60287;DHT22;46141;52.382;5.270;2023-04-24T12:07:13;18.80;67.70
60287;DHT22;46141;52.382;5.270;2023-04-24T12:12:08;18.80;67.70
60287;DHT22;46141;52.382;5.270;2023-04-24T12:14:52;18.80;67.70
60287;DHT22;46141;52.382;5.270;2023-04-24T12:17:25;18.80;67.70
60287;DHT22;46141;52.382;5.270;2023-04-24T12:19:51;18.80;67.60
60287;DHT22;46141;52.382;5.270;2023-04-24T12:22:16;18.80;67.70
60287;DHT22;46141;52.382;5.270;2023-04-24T12:25:04;18.80;67.70
60287;DHT22;46141;52.382;5.270;2023-04-24T12:27:32;18.80;67.60
60287;DHT22;46141;52.382;5.270;2023-04-24T12:30:00;18.80;67.50
60287;DHT22;46141;52.382;5.270;2023-04-24T12:32:26;18.80;67.60
60287;DHT22;46141;52.382;5.270;2023-04-24T12:34:53;18.80;67.60
60287;DHT22;46141;52.382;5.270;2023-04-24T12:37:19;18.90;67.60
60287;DHT22;46141;52.382;5.270;2023-04-24T12:42:29;18.80;67.60
60287;DHT22;46141;52.382;5.270;2023-04-24T12:45:04;18.80;67.60
60287;DHT22;46141;52.382;5.270;2023-04-24T12:47:31;18.90;67.60
60287;DHT22;46141;52.382;5.270;2023-04-24T12:49:57;18.90;68.00
60287;DHT22;46141;52.382;5.270;2023-04-24T12:52:24;18.80;67.50
60287;DHT22;46141;52.382;5.270;2023-04-24T12:54:53;18.80;67.60
60287;DHT22;46141;52.382;5.270;2023-04-24T12:57:20;18.80;67.60
60287;DHT22;46141;52.382;5.270;2023-04-24T12:59:46;18.80;67.50
60287;DHT22;46141;52.382;5.270;2023-04-24T13:02:12;18.80;67.60
60287;DHT22;46141;52.382;5.270;2023-04-24T13:04:38;18.80;67.60
60287;DHT22;46141;52.382;5.270;2023-04-24T13:07:04;18.80;67.60
60287;DHT22;46141;52.382;5.270;2023-04-24T13:09:30;18.80;67.50
60287;DHT22;46141;52.382;5.270;2023-04-24T13:11:56;18.70;67.50
60287;DHT22;46141;52.382;5.270;2023-04-24T13:14:22;18.80;67.60
60287;DHT22;46141;52.382;5.270;2023-04-24T13:16:49;18.80;67.60
60287;DHT22;46141;52.382;5.270;2023-04-24T13:19:15;18.70;67.70
60287;DHT22;46141;52.382;5.270;2023-04-24T13:21:40;18.80;67.80
60287;DHT22;46141;52.382;5.270;2023-04-24T13:24:06;18.80;67.80
60287;DHT22;46141;52.382;5.270;2023-04-24T13:26:33;18.80;67.80
60287;DHT22;46141;52.382;5.270;2023-04-24T13:28:58;18.70;67.60
60287;DHT22;46141;52.382;5.270;2023-04-24T13:31:24;18.80;67.60
60287;DHT22;46141;52.382;5.270;2023-04-24T13:33:50;18.70;67.50
60287;DHT22;46141;52.382;5.270;2023-04-24T13:36:16;18.80;67.70
60287;DHT22;46141;52.382;5.270;2023-04-24T13:38:44;18.80;67.70
60287;DHT22;46141;52.382;5.270;2023-04-24T13:41:10;18.80;67.70
60287;DHT22;46141;52.382;5.270;2023-04-24T13:43:35;18.80;67.50
60287;DHT22;46141;52.382;5.270;2023-04-24T13:46:01;18.80;67.50
60287;DHT22;46141;52.382;5.270;2023-04-24T13:48:29;18.80;67.50
60287;DHT22;46141;52.382;5.270;2023-04-24T13:50:55;18.80;67.50
60287;DHT22;46141;52.382;5.270;2023-04-24T13:53:21;18.80;67.40
60287;DHT22;46141;52.382;5.270;2023-04-24T13:55:47;18.80;67.50
60287;DHT22;46141;52.382;5.270;2023-04-24T13:58:13;18.80;67.50
60287;DHT22;46141;52.382;5.270;2023-04-24T14:00:39;18.90;67.30
60287;DHT22;46141;52.382;5.270;2023-04-24T14:03:05;19.00;67.10
60287;DHT22;46141;52.382;5.270;2023-04-24T14:05:30;19.10;67.30
60287;DHT22;46141;52.382;5.270;2023-04-24T14:07:56;19.20;67.70
60287;DHT22;46141;52.382;5.270;2023-04-24T14:10:22;19.20;67.70
60287;DHT22;46141;52.382;5.270;2023-04-24T14:12:47;19.30;67.60
60287;DHT22;46141;52.382;5.270;2023-04-24T14:15:13;19.40;67.60
60287;DHT22;46141;52.382;5.270;2023-04-24T14:17:39;19.40;67.80
60287;DHT22;46141;52.382;5.270;2023-04-24T14:20:05;19.40;67.80
60287;DHT22;46141;52.382;5.270;2023-04-24T14:22:32;19.40;67.70
60287;DHT22;46141;52.382;5.270;2023-04-24T14:24:58;19.40;67.70
60287;DHT22;46141;52.382;5.270;2023-04-24T14:27:24;19.50;67.50
60287;DHT22;46141;52.382;5.270;2023-04-24T14:29:50;19.50;67.50
60287;DHT22;46141;52.382;5.270;2023-04-24T14:32:16;19.60;67.40
60287;DHT22;46141;52.382;5.270;2023-04-24T14:34:42;19.70;67.50
60287;DHT22;46141;52.382;5.270;2023-04-24T14:37:07;19.70;67.30
60287;DHT22;46141;52.382;5.270;2023-04-24T14:39:33;19.80;67.30
60287;DHT22;46141;52.382;5.270;2023-04-24T14:42:00;19.80;67.20
60287;DHT22;46141;52.382;5.270;2023-04-24T14:44:26;19.80;67.30
60287;DHT22;46141;52.382;5.270;2023-04-24T14:46:52;19.80;67.20
60287;DHT22;46141;52.382;5.270;2023-04-24T14:49:18;19.90;67.00
60287;DHT22;46141;52.382;5.270;2023-04-24T14:51:44;19.90;67.00
60287;DHT22;46141;52.382;5.270;2023-04-24T14:54:09;19.90;67.00
60287;DHT22;46141;52.382;5.270;2023-04-24T14:56:35;19.90;67.00
60287;DHT22;46141;52.382;5.270;2023-04-24T14:59:01;19.90;67.10
60287;DHT22;46141;52.382;5.270;2023-04-24T15:01:27;19.90;67.40
60287;DHT22;46141;52.382;5.270;2023-04-24T15:03:53;19.90;67.30
60287;DHT22;46141;52.382;5.270;2023-04-24T15:06:19;20.00;66.90
60287;DHT22;46141;52.382;5.270;2023-04-24T15:08:45;20.00;66.80
60287;DHT22;46141;52.382;5.270;2023-04-24T15:11:11;20.10;66.70
60287;DHT22;46141;52.382;5.270;2023-04-24T15:13:37;20.30;67.00
60287;DHT22;46141;52.382;5.270;2023-04-24T15:16:03;20.40;66.70
60287;DHT22;46141;52.382;5.270;2023-04-24T15:18:29;20.50;66.60
60287;DHT22;46141;52.382;5.270;2023-04-24T15:20:55;20.50;66.30
60287;DHT22;46141;52.382;5.270;2023-04-24T15:23:21;20.60;66.30
60287;DHT22;46141;52.382;5.270;2023-04-24T15:25:47;20.60;66.20
60287;DHT22;46141;52.382;5.270;2023-04-24T15:28:13;20.60;66.20
60287;DHT22;46141;52.382;5.270;2023-04-24T15:30:39;20.60;66.30
60287;DHT22;46141;52.382;5.270;2023-04-24T15:33:05;20.70;66.20
60287;DHT22;46141;52.382;5.270;2023-04-24T15:35:31;20.80;66.20
60287;DHT22;46141;52.382;5.270;2023-04-24T15:37:56;20.80;66.00
60287;DHT22;46141;52.382;5.270;2023-04-24T15:40:22;20.90;65.90
60287;DHT22;46141;52.382;5.270;2023-04-24T15:42:48;21.00;65.80
60287;DHT22;46141;52.382;5.270;2023-04-24T15:45:14;21.00;65.90
60287;DHT22;46141;52.382;5.270;2023-04-24T15:47:39;20.90;65.90
60287;DHT22;46141;52.382;5.270;2023-04-24T15:50:05;20.90;66.00
60287;DHT22;46141;52.382;5.270;2023-04-24T15:52:34;20.90;65.90